sensor_id;sensor_type;location;lat;lon;timestamp;temperature;humidity
52799;DHT22;38667;42.872;74.622;2023-06-19T00:01:44;27.70;31.00
52799;DHT22;38667;42.872;74.622;2023-06-19T00:04:12;27.70;31.20
52799;DHT22;38667;42.872;74.622;2023-06-19T00:06:38;27.60;31.40
52799;DHT22;38667;42.872;74.622;2023-06-19T00:09:06;27.60;31.50
52799;DHT22;38667;42.872;74.622;2023-06-19T00:11:32;27.60;31.50
52799;DHT22;38667;42.872;74.622;2023-06-19T00:13:58;27.50;31.60
52799;DHT22;38667;42.872;74.622;2023-06-19T00:16:24;27.50;32.10
52799;DHT22;38667;42.872;74.622;2023-06-19T00:18:51;27.40;32.20
52799;DHT22;38667;42.872;74.622;2023-06-19T00:21:19;27.30;32.60
52799;DHT22;38667;42.872;74.622;2023-06-19T00:23:45;27.30;32.80
52799;DHT22;38667;42.872;74.622;2023-06-19T00:26:11;27.30;32.80
52799;DHT22;38667;42.872;74.622;2023-06-19T00:28:38;27.20;33.00
52799;DHT22;38667;42.872;74.622;2023-06-19T00:31:04;27.20;33.00
52799;DHT22;38667;42.872;74.622;2023-06-19T00:33:30;27.10;33.00
52799;DHT22;38667;42.872;74.622;2023-06-19T00:35:56;27.10;33.10
52799;DHT22;38667;42.872;74.622;2023-06-19T00:38:24;27.10;33.80
52799;DHT22;38667;42.872;74.622;2023-06-19T00:40:50;27.00;34.20
52799;DHT22;38667;42.872;74.622;2023-06-19T00:43:17;27.00;33.90
52799;DHT22;38667;42.872;74.622;2023-06-19T00:45:43;26.90;33.30
52799;DHT22;38667;42.872;74.622;2023-06-19T00:48:10;27.00;34.00
52799;DHT22;38667;42.872;74.622;2023-06-19T00:50:36;27.00;33.60
52799;DHT22;38667;42.872;74.622;2023-06-19T00:53:03;26.90;34.10
52799;DHT22;38667;42.872;74.622;2023-06-19T00:55:31;26.90;34.30
52799;DHT22;38667;42.872;74.622;2023-06-19T00:57:59;26.90;35.20
52799;DHT22;38667;42.872;74.622;2023-06-19T01:00:26;26.90;36.10
52799;DHT22;38667;42.872;74.622;2023-06-19T01:02:52;26.80;36.40
52799;DHT22;38667;42.872;74.622;2023-06-19T01:05:18;26.70;37.80
52799;DHT22;38667;42.872;74.622;2023-06-19T01:07:51;26.70;37.60
52799;DHT22;38667;42.872;74.622;2023-06-19T01:10:21;26.70;36.90
52799;DHT22;38667;42.872;74.622;2023-06-19T01:12:54;26.80;35.90
52799;DHT22;38667;42.872;74.622;2023-06-19T01:15:23;26.90;34.70
52799;DHT22;38667;42.872;74.622;2023-06-19T01:17:49;27.10;34.70
52799;DHT22;38667;42.872;74.622;2023-06-19T01:20:16;27.20;34.60
52799;DHT22;38667;42.872;74.622;2023-06-19T01:22:44;27.30;34.20
52799;DHT22;38667;42.872;74.622;2023-06-19T01:25:11;27.40;34.20
52799;DHT22;38667;42.872;74.622;2023-06-19T01:27:37;27.50;34.30
52799;DHT22;38667;42.872;74.622;2023-06-19T01:30:04;27.50;34.70
52799;DHT22;38667;42.872;74.622;2023-06-19T01:32:36;27.50;35.40
52799;DHT22;38667;42.872;74.622;2023-06-19T01:35:05;27.50;35.80
52799;DHT22;38667;42.872;74.622;2023-06-19T01:37:33;27.50;35.60
52799;DHT22;38667;42.872;74.622;2023-06-19T01:40:03;27.50;36.50
52799;DHT22;38667;42.872;74.622;2023-06-19T01:42:32;27.50;38.00
52799;DHT22;38667;42.872;74.622;2023-06-19T01:44:58;27.30;38.30
52799;DHT22;38667;42.872;74.622;2023-06-19T01:47:25;27.30;38.60
52799;DHT22;38667;42.872;74.622;2023-06-19T01:49:51;27.20;39.40
52799;DHT22;38667;42.872;74.622;2023-06-19T01:52:17;27.20;40.30
52799;DHT22;38667;42.872;74.622;2023-06-19T01:54:44;27.20;40.80
52799;DHT22;38667;42.872;74.622;2023-06-19T01:57:13;27.20;39.80
52799;DHT22;38667;42.872;74.622;2023-06-19T01:59:39;27.30;39.10
52799;DHT22;38667;42.872;74.622;2023-06-19T02:02:33;27.30;38.80
52799;DHT22;38667;42.872;74.622;2023-06-19T02:04:59;27.30;38.80
52799;DHT22;38667;42.872;74.622;2023-06-19T02:07:40;27.40;38.80
52799;DHT22;38667;42.872;74.622;2023-06-19T02:10:07;27.40;39.90
52799;DHT22;38667;42.872;74.622;2023-06-19T02:12:34;27.40;40.30
52799;DHT22;38667;42.872;74.622;2023-06-19T02:15:00;27.50;40.20
52799;DHT22;38667;42.872;74.622;2023-06-19T02:17:26;27.50;40.20
52799;DHT22;38667;42.872;74.622;2023-06-19T02:19:52;27.60;40.30
52799;DHT22;38667;42.872;74.622;2023-06-19T02:22:19;27.60;40.90
52799;DHT22;38667;42.872;74.622;2023-06-19T02:24:47;27.70;40.90
52799;DHT22;38667;42.872;74.622;2023-06-19T02:27:13;27.80;42.00
52799;DHT22;38667;42.872;74.622;2023-06-19T02:29:39;27.90;40.90
52799;DHT22;38667;42.872;74.622;2023-06-19T02:32:06;27.90;40.70
52799;DHT22;38667;42.872;74.622;2023-06-19T02:34:33;27.90;41.00
52799;DHT22;38667;42.872;74.622;2023-06-19T02:36:59;27.80;40.90
52799;DHT22;38667;42.872;74.622;2023-06-19T02:39:25;27.80;40.60
52799;DHT22;38667;42.872;74.622;2023-06-19T02:41:53;27.80;40.20
52799;DHT22;38667;42.872;74.622;2023-06-19T02:44:19;27.80;39.70
52799;DHT22;38667;42.872;74.622;2023-06-19T02:46:45;27.90;40.20
52799;DHT22;38667;42.872;74.622;2023-06-19T02:49:12;27.90;40.50
52799;DHT22;38667;42.872;74.622;2023-06-19T02:51:38;27.90;41.60
52799;DHT22;38667;42.872;74.622;2023-06-19T02:54:04;27.90;40.70
52799;DHT22;38667;42.872;74.622;2023-06-19T02:56:31;27.90;41.00
52799;DHT22;38667;42.872;74.622;2023-06-19T02:58:59;28.20;41.70
52799;DHT22;38667;42.872;74.622;2023-06-19T03:01:25;28.40;41.60
52799;DHT22;38667;42.872;74.622;2023-06-19T03:03:51;28.50;41.60
52799;DHT22;38667;42.872;74.622;2023-06-19T03:06:18;28.60;40.20
52799;DHT22;38667;42.872;74.622;2023-06-19T03:08:44;28.80;39.60
52799;DHT22;38667;42.872;74.622;2023-06-19T03:11:10;28.80;41.10
52799;DHT22;38667;42.872;74.622;2023-06-19T03:13:45;28.70;41.60
52799;DHT22;38667;42.872;74.622;2023-06-19T03:16:13;28.60;40.90
52799;DHT22;38667;42.872;74.622;2023-06-19T03:18:39;28.50;41.20
52799;DHT22;38667;42.872;74.622;2023-06-19T03:21:05;28.40;41.40
52799;DHT22;38667;42.872;74.622;2023-06-19T03:23:32;28.40;41.40
52799;DHT22;38667;42.872;74.622;2023-06-19T03:25:58;28.40;41.50
52799;DHT22;38667;42.872;74.622;2023-06-19T03:28:24;28.60;40.90
52799;DHT22;38667;42.872;74.622;2023-06-19T03:30:51;28.70;40.80
52799;DHT22;38667;42.872;74.622;2023-06-19T03:33:18;28.80;41.00
52799;DHT22;38667;42.872;74.622;2023-06-19T03:35:45;29.00;36.40
52799;DHT22;38667;42.872;74.622;2023-06-19T03:38:11;29.20;36.00
52799;DHT22;38667;42.872;74.622;2023-06-19T03:40:37;29.30;36.10
52799;DHT22;38667;42.872;74.622;2023-06-19T03:43:04;29.50;36.80
52799;DHT22;38667;42.872;74.622;2023-06-19T03:45:30;29.50;37.60
52799;DHT22;38667;42.872;74.622;2023-06-19T03:47:56;29.60;37.40
52799;DHT22;38667;42.872;74.622;2023-06-19T03:50:24;29.70;36.70
52799;DHT22;38667;42.872;74.622;2023-06-19T03:52:51;29.90;35.20
52799;DHT22;38667;42.872;74.622;2023-06-19T03:55:17;30.00;33.30
52799;DHT22;38667;42.872;74.622;2023-06-19T03:57:43;30.10;34.10
52799;DHT22;38667;42.872;74.622;2023-06-19T04:00:10;30.20;32.20
52799;DHT22;38667;42.872;74.622;2023-06-19T04:02:37;30.40;32.20
52799;DHT22;38667;42.872;74.622;2023-06-19T04:05:03;30.40;31.40
52799;DHT22;38667;42.872;74.622;2023-06-19T04:07:32;30.60;31.30
52799;DHT22;38667;42.872;74.622;2023-06-19T04:09:59;30.80;30.60
52799;DHT22;38667;42.872;74.622;2023-06-19T04:12:25;31.00;30.60
52799;DHT22;38667;42.872;74.622;2023-06-19T04:14:51;31.10;30.40
52799;DHT22;38667;42.872;74.622;2023-06-19T04:17:17;31.30;30.60
52799;DHT22;38667;42.872;74.622;2023-06-19T04:19:44;31.40;31.00
52799;DHT22;38667;42.872;74.622;2023-06-19T04:22:10;31.50;30.30
52799;DHT22;38667;42.872;74.622;2023-06-19T04:24:38;31.50;29.90
52799;DHT22;38667;42.872;74.622;2023-06-19T04:27:05;31.50;30.10
52799;DHT22;38667;42.872;74.622;2023-06-19T04:29:31;31.50;30.20
52799;DHT22;38667;42.872;74.622;2023-06-19T04:31:58;31.60;30.70
52799;DHT22;38667;42.872;74.622;2023-06-19T04:34:25;31.80;31.90
52799;DHT22;38667;42.872;74.622;2023-06-19T04:36:51;32.00;32.50
52799;DHT22;38667;42.872;74.622;2023-06-19T04:39:17;32.00;28.90
52799;DHT22;38667;42.872;74.622;2023-06-19T04:41:45;32.10;28.50
52799;DHT22;38667;42.872;74.622;2023-06-19T04:44:12;32.20;27.70
52799;DHT22;38667;42.872;74.622;2023-06-19T04:46:38;32.30;27.20
52799;DHT22;38667;42.872;74.622;2023-06-19T04:49:04;32.40;27.40
52799;DHT22;38667;42.872;74.622;2023-06-19T04:51:31;32.60;26.70
52799;DHT22;38667;42.872;74.622;2023-06-19T04:53:58;32.70;26.00
52799;DHT22;38667;42.872;74.622;2023-06-19T04:56:24;32.70;27.00
52799;DHT22;38667;42.872;74.622;2023-06-19T04:58:52;32.80;28.20
52799;DHT22;38667;42.872;74.622;2023-06-19T05:01:18;32.90;26.50
52799;DHT22;38667;42.872;74.622;2023-06-19T05:03:45;33.10;26.20
52799;DHT22;38667;42.872;74.622;2023-06-19T05:06:11;33.00;26.90
52799;DHT22;38667;42.872;74.622;2023-06-19T05:08:38;33.00;27.50
52799;DHT22;38667;42.872;74.622;2023-06-19T05:11:04;33.00;26.20
52799;DHT22;38667;42.872;74.622;2023-06-19T05:13:30;33.00;27.00
52799;DHT22;38667;42.872;74.622;2023-06-19T05:15:58;33.00;28.10
52799;DHT22;38667;42.872;74.622;2023-06-19T05:18:25;33.00;27.70
52799;DHT22;38667;42.872;74.622;2023-06-19T05:20:51;32.90;26.40
52799;DHT22;38667;42.872;74.622;2023-06-19T05:23:17;32.80;26.40
52799;DHT22;38667;42.872;74.622;2023-06-19T05:25:43;32.80;26.70
52799;DHT22;38667;42.872;74.622;2023-06-19T05:28:10;32.90;26.60
52799;DHT22;38667;42.872;74.622;2023-06-19T05:30:36;33.20;26.40
52799;DHT22;38667;42.872;74.622;2023-06-19T05:33:04;33.30;26.10
52799;DHT22;38667;42.872;74.622;2023-06-19T05:35:30;33.50;25.80
52799;DHT22;38667;42.872;74.622;2023-06-19T05:37:56;33.60;25.70
52799;DHT22;38667;42.872;74.622;2023-06-19T05:40:23;33.70;27.20
52799;DHT22;38667;42.872;74.622;2023-06-19T05:42:49;33.70;27.00
52799;DHT22;38667;42.872;74.622;2023-06-19T05:45:16;33.90;27.80
52799;DHT22;38667;42.872;74.622;2023-06-19T05:47:43;34.10;26.20
52799;DHT22;38667;42.872;74.622;2023-06-19T05:50:11;34.40;24.80
52799;DHT22;38667;42.872;74.622;2023-06-19T05:52:37;34.50;24.10
52799;DHT22;38667;42.872;74.622;2023-06-19T05:55:04;34.80;23.20
52799;DHT22;38667;42.872;74.622;2023-06-19T05:57:31;35.10;23.40
52799;DHT22;38667;42.872;74.622;2023-06-19T05:59:57;35.40;22.90
52799;DHT22;38667;42.872;74.622;2023-06-19T06:02:23;35.40;24.70
52799;DHT22;38667;42.872;74.622;2023-06-19T06:04:50;35.50;25.70
52799;DHT22;38667;42.872;74.622;2023-06-19T06:07:17;35.60;24.90
52799;DHT22;38667;42.872;74.622;2023-06-19T06:09:44;35.50;24.70
52799;DHT22;38667;42.872;74.622;2023-06-19T06:12:10;35.40;25.40
52799;DHT22;38667;42.872;74.622;2023-06-19T06:14:36;35.30;24.60
52799;DHT22;38667;42.872;74.622;2023-06-19T06:17:03;35.20;25.50
52799;DHT22;38667;42.872;74.622;2023-06-19T06:19:29;35.10;24.60
52799;DHT22;38667;42.872;74.622;2023-06-19T06:21:55;34.90;23.70
52799;DHT22;38667;42.872;74.622;2023-06-19T06:24:23;34.70;22.60
52799;DHT22;38667;42.872;74.622;2023-06-19T06:26:50;34.70;23.70
52799;DHT22;38667;42.872;74.622;2023-06-19T06:29:16;34.60;23.40
52799;DHT22;38667;42.872;74.622;2023-06-19T06:31:45;34.50;24.10
52799;DHT22;38667;42.872;74.622;2023-06-19T06:34:11;34.60;24.40
52799;DHT22;38667;42.872;74.622;2023-06-19T06:36:38;34.70;24.60
52799;DHT22;38667;42.872;74.622;2023-06-19T06:39:04;34.80;25.60
52799;DHT22;38667;42.872;74.622;2023-06-19T06:41:32;34.90;24.80
52799;DHT22;38667;42.872;74.622;2023-06-19T06:43:58;34.90;24.80
52799;DHT22;38667;42.872;74.622;2023-06-19T06:46:24;34.70;24.40
52799;DHT22;38667;42.872;74.622;2023-06-19T06:48:50;34.40;24.90
52799;DHT22;38667;42.872;74.622;2023-06-19T06:51:17;33.90;24.70
52799;DHT22;38667;42.872;74.622;2023-06-19T06:53:43;33.20;29.70
52799;DHT22;38667;42.872;74.622;2023-06-19T06:56:09;31.80;31.00
52799;DHT22;38667;42.872;74.622;2023-06-19T06:58:37;30.50;31.40
52799;DHT22;38667;42.872;74.622;2023-06-19T07:01:03;29.80;32.00
52799;DHT22;38667;42.872;74.622;2023-06-19T07:03:30;29.50;31.50
52799;DHT22;38667;42.872;74.622;2023-06-19T07:05:56;29.50;31.10
52799;DHT22;38667;42.872;74.622;2023-06-19T07:08:22;29.60;29.70
52799;DHT22;38667;42.872;74.622;2023-06-19T07:10:49;30.00;29.70
52799;DHT22;38667;42.872;74.622;2023-06-19T07:13:15;30.10;28.10
52799;DHT22;38667;42.872;74.622;2023-06-19T07:15:43;30.70;23.80
52799;DHT22;38667;42.872;74.622;2023-06-19T07:18:09;30.70;25.60
52799;DHT22;38667;42.872;74.622;2023-06-19T07:20:35;30.50;26.10
52799;DHT22;38667;42.872;74.622;2023-06-19T07:23:02;30.60;24.00
52799;DHT22;38667;42.872;74.622;2023-06-19T07:25:28;30.90;24.10
52799;DHT22;38667;42.872;74.622;2023-06-19T07:27:54;31.20;26.60
52799;DHT22;38667;42.872;74.622;2023-06-19T07:30:21;31.20;24.60
52799;DHT22;38667;42.872;74.622;2023-06-19T07:32:48;31.30;24.50
52799;DHT22;38667;42.872;74.622;2023-06-19T07:35:15;31.10;25.40
52799;DHT22;38667;42.872;74.622;2023-06-19T07:37:41;30.90;25.20
52799;DHT22;38667;42.872;74.622;2023-06-19T07:40:08;31.10;25.30
52799;DHT22;38667;42.872;74.622;2023-06-19T07:42:35;31.20;26.00
52799;DHT22;38667;42.872;74.622;2023-06-19T07:45:01;31.10;24.90
52799;DHT22;38667;42.872;74.622;2023-06-19T07:47:27;31.20;24.50
52799;DHT22;38667;42.872;74.622;2023-06-19T07:49:55;31.40;24.50
52799;DHT22;38667;42.872;74.622;2023-06-19T07:52:21;31.60;24.70
52799;DHT22;38667;42.872;74.622;2023-06-19T07:54:50;31.40;26.80
52799;DHT22;38667;42.872;74.622;2023-06-19T07:57:16;30.90;27.60
52799;DHT22;38667;42.872;74.622;2023-06-19T07:59:43;30.60;28.30
52799;DHT22;38667;42.872;74.622;2023-06-19T08:02:09;30.50;28.90
52799;DHT22;38667;42.872;74.622;2023-06-19T08:04:35;30.60;29.70
52799;DHT22;38667;42.872;74.622;2023-06-19T08:07:03;30.70;28.60
52799;DHT22;38667;42.872;74.622;2023-06-19T08:09:29;31.00;28.70
52799;DHT22;38667;42.872;74.622;2023-06-19T08:11:56;31.30;28.40
52799;DHT22;38667;42.872;74.622;2023-06-19T08:14:23;31.70;28.80
52799;DHT22;38667;42.872;74.622;2023-06-19T08:16:49;31.90;28.20
52799;DHT22;38667;42.872;74.622;2023-06-19T08:19:15;31.70;27.50
52799;DHT22;38667;42.872;74.622;2023-06-19T08:21:42;31.30;28.70
52799;DHT22;38667;42.872;74.622;2023-06-19T08:24:09;31.20;27.40
52799;DHT22;38667;42.872;74.622;2023-06-19T08:26:36;31.40;27.80
52799;DHT22;38667;42.872;74.622;2023-06-19T08:29:02;31.70;28.20
52799;DHT22;38667;42.872;74.622;2023-06-19T08:31:28;31.70;28.40
52799;DHT22;38667;42.872;74.622;2023-06-19T08:33:55;31.80;27.90
52799;DHT22;38667;42.872;74.622;2023-06-19T08:36:21;31.90;28.70
52799;DHT22;38667;42.872;74.622;2023-06-19T08:38:47;31.60;27.30
52799;DHT22;38667;42.872;74.622;2023-06-19T08:41:15;31.50;27.60
52799;DHT22;38667;42.872;74.622;2023-06-19T08:43:42;31.40;27.40
52799;DHT22;38667;42.872;74.622;2023-06-19T08:46:11;31.60;26.60
52799;DHT22;38667;42.872;74.622;2023-06-19T08:48:38;31.70;26.10
52799;DHT22;38667;42.872;74.622;2023-06-19T08:51:04;31.80;25.90
52799;DHT22;38667;42.872;74.622;2023-06-19T08:53:33;31.90;26.00
52799;DHT22;38667;42.872;74.622;2023-06-19T08:55:59;31.80;27.50
52799;DHT22;38667;42.872;74.622;2023-06-19T08:58:27;31.60;27.50
52799;DHT22;38667;42.872;74.622;2023-06-19T09:00:54;31.60;27.90
52799;DHT22;38667;42.872;74.622;2023-06-19T09:03:21;31.70;27.80
52799;DHT22;38667;42.872;74.622;2023-06-19T09:05:48;31.60;27.30
52799;DHT22;38667;42.872;74.622;2023-06-19T09:08:14;31.60;27.00
52799;DHT22;38667;42.872;74.622;2023-06-19T09:10:40;31.60;27.40
52799;DHT22;38667;42.872;74.622;2023-06-19T09:13:07;31.60;26.30
52799;DHT22;38667;42.872;74.622;2023-06-19T09:15:35;31.70;25.20
52799;DHT22;38667;42.872;74.622;2023-06-19T09:18:03;31.90;24.40
52799;DHT22;38667;42.872;74.622;2023-06-19T09:20:30;31.90;25.40
52799;DHT22;38667;42.872;74.622;2023-06-19T09:22:56;31.80;27.00
52799;DHT22;38667;42.872;74.622;2023-06-19T09:25:22;31.70;27.20
52799;DHT22;38667;42.872;74.622;2023-06-19T09:27:49;31.60;25.80
52799;DHT22;38667;42.872;74.622;2023-06-19T09:30:16;31.50;27.60
52799;DHT22;38667;42.872;74.622;2023-06-19T09:32:43;31.70;24.70
52799;DHT22;38667;42.872;74.622;2023-06-19T09:35:10;31.60;24.80
52799;DHT22;38667;42.872;74.622;2023-06-19T09:37:38;31.50;26.10
52799;DHT22;38667;42.872;74.622;2023-06-19T09:40:06;31.40;26.80
52799;DHT22;38667;42.872;74.622;2023-06-19T09:42:33;31.30;27.20
52799;DHT22;38667;42.872;74.622;2023-06-19T09:45:02;31.30;27.30
52799;DHT22;38667;42.872;74.622;2023-06-19T09:47:31;31.10;27.70
52799;DHT22;38667;42.872;74.622;2023-06-19T09:49:59;31.00;27.60
52799;DHT22;38667;42.872;74.622;2023-06-19T09:52:27;30.80;27.00
52799;DHT22;38667;42.872;74.622;2023-06-19T09:54:54;30.70;27.10
52799;DHT22;38667;42.872;74.622;2023-06-19T09:57:21;30.50;27.20
52799;DHT22;38667;42.872;74.622;2023-06-19T09:59:49;30.30;27.20
52799;DHT22;38667;42.872;74.622;2023-06-19T10:02:16;30.10;27.90
52799;DHT22;38667;42.872;74.622;2023-06-19T10:04:44;30.00;27.70
52799;DHT22;38667;42.872;74.622;2023-06-19T10:07:17;30.00;27.50
52799;DHT22;38667;42.872;74.622;2023-06-19T10:09:58;29.90;27.10
52799;DHT22;38667;42.872;74.622;2023-06-19T10:12:34;29.90;27.00
52799;DHT22;38667;42.872;74.622;2023-06-19T10:15:09;29.90;26.80
52799;DHT22;38667;42.872;74.622;2023-06-19T10:17:35;29.90;26.60
52799;DHT22;38667;42.872;74.622;2023-06-19T10:20:01;29.90;26.60
52799;DHT22;38667;42.872;74.622;2023-06-19T10:22:32;30.00;27.10
52799;DHT22;38667;42.872;74.622;2023-06-19T10:24:58;30.00;27.00
52799;DHT22;38667;42.872;74.622;2023-06-19T10:27:25;29.90;26.60
52799;DHT22;38667;42.872;74.622;2023-06-19T10:29:52;29.90;26.60
52799;DHT22;38667;42.872;74.622;2023-06-19T10:32:19;30.00;27.00
52799;DHT22;38667;42.872;74.622;2023-06-19T10:34:46;30.10;26.50
52799;DHT22;38667;42.872;74.622;2023-06-19T10:37:12;30.10;25.90
52799;DHT22;38667;42.872;74.622;2023-06-19T10:39:40;30.10;26.30
52799;DHT22;38667;42.872;74.622;2023-06-19T10:42:07;30.10;25.90
52799;DHT22;38667;42.872;74.622;2023-06-19T10:44:34;30.20;26.50
52799;DHT22;38667;42.872;74.622;2023-06-19T10:47:01;30.10;26.90
52799;DHT22;38667;42.872;74.622;2023-06-19T10:49:27;30.10;27.10
52799;DHT22;38667;42.872;74.622;2023-06-19T10:51:54;30.10;27.20
52799;DHT22;38667;42.872;74.622;2023-06-19T10:54:21;30.10;27.40
52799;DHT22;38667;42.872;74.622;2023-06-19T10:56:49;30.10;27.30
52799;DHT22;38667;42.872;74.622;2023-06-19T10:59:15;30.10;27.20
52799;DHT22;38667;42.872;74.622;2023-06-19T11:01:43;30.10;27.50
52799;DHT22;38667;42.872;74.622;2023-06-19T11:04:12;30.10;28.20
52799;DHT22;38667;42.872;74.622;2023-06-19T11:06:40;30.10;27.80
52799;DHT22;38667;42.872;74.622;2023-06-19T11:09:07;30.00;27.80
52799;DHT22;38667;42.872;74.622;2023-06-19T11:11:38;29.90;27.70
52799;DHT22;38667;42.872;74.622;2023-06-19T11:14:07;29.90;27.60
52799;DHT22;38667;42.872;74.622;2023-06-19T11:16:34;29.80;27.30
52799;DHT22;38667;42.872;74.622;2023-06-19T11:19:01;29.70;27.30
52799;DHT22;38667;42.872;74.622;2023-06-19T11:21:31;29.70;27.50
52799;DHT22;38667;42.872;74.622;2023-06-19T11:23:58;29.60;27.60
52799;DHT22;38667;42.872;74.622;2023-06-19T11:26:25;29.60;27.80
52799;DHT22;38667;42.872;74.622;2023-06-19T11:28:51;29.50;28.20
52799;DHT22;38667;42.872;74.622;2023-06-19T11:31:25;29.50;28.20
52799;DHT22;38667;42.872;74.622;2023-06-19T11:33:57;29.50;27.40
52799;DHT22;38667;42.872;74.622;2023-06-19T11:36:23;29.60;27.60
52799;DHT22;38667;42.872;74.622;2023-06-19T11:38:51;29.70;27.00
52799;DHT22;38667;42.872;74.622;2023-06-19T11:41:25;29.90;26.70
52799;DHT22;38667;42.872;74.622;2023-06-19T11:43:58;30.10;27.10
52799;DHT22;38667;42.872;74.622;2023-06-19T11:46:30;30.20;26.60
52799;DHT22;38667;42.872;74.622;2023-06-19T11:49:07;30.30;26.80
52799;DHT22;38667;42.872;74.622;2023-06-19T11:51:33;30.40;26.60
52799;DHT22;38667;42.872;74.622;2023-06-19T11:54:00;30.50;26.30
52799;DHT22;38667;42.872;74.622;2023-06-19T11:56:26;30.50;26.60
52799;DHT22;38667;42.872;74.622;2023-06-19T11:58:52;30.50;26.40
52799;DHT22;38667;42.872;74.622;2023-06-19T12:01:18;30.50;26.60
52799;DHT22;38667;42.872;74.622;2023-06-19T12:03:46;30.50;26.90
52799;DHT22;38667;42.872;74.622;2023-06-19T12:06:12;30.40;27.30
52799;DHT22;38667;42.872;74.622;2023-06-19T12:08:39;30.50;26.80
52799;DHT22;38667;42.872;74.622;2023-06-19T12:11:05;30.60;26.70
52799;DHT22;38667;42.872;74.622;2023-06-19T12:13:31;30.60;26.20
52799;DHT22;38667;42.872;74.622;2023-06-19T12:15:58;30.80;26.10
52799;DHT22;38667;42.872;74.622;2023-06-19T12:18:24;30.80;25.60
52799;DHT22;38667;42.872;74.622;2023-06-19T12:20:52;30.70;25.70
52799;DHT22;38667;42.872;74.622;2023-06-19T12:23:18;30.70;26.00
52799;DHT22;38667;42.872;74.622;2023-06-19T12:25:44;30.70;26.00
52799;DHT22;38667;42.872;74.622;2023-06-19T12:28:11;30.80;26.20
52799;DHT22;38667;42.872;74.622;2023-06-19T12:30:37;31.00;26.80
52799;DHT22;38667;42.872;74.622;2023-06-19T12:33:03;30.90;26.20
52799;DHT22;38667;42.872;74.622;2023-06-19T12:35:29;30.90;26.30
52799;DHT22;38667;42.872;74.622;2023-06-19T12:37:57;31.10;26.60
52799;DHT22;38667;42.872;74.622;2023-06-19T12:40:24;31.30;26.30
52799;DHT22;38667;42.872;74.622;2023-06-19T12:42:50;31.40;25.70
52799;DHT22;38667;42.872;74.622;2023-06-19T12:45:17;31.20;25.70
52799;DHT22;38667;42.872;74.622;2023-06-19T12:47:43;31.10;26.30
52799;DHT22;38667;42.872;74.622;2023-06-19T12:50:09;31.20;26.00
52799;DHT22;38667;42.872;74.622;2023-06-19T12:52:36;31.30;25.40
52799;DHT22;38667;42.872;74.622;2023-06-19T12:55:04;31.40;25.10
52799;DHT22;38667;42.872;74.622;2023-06-19T12:57:31;31.30;25.50
52799;DHT22;38667;42.872;74.622;2023-06-19T12:59:57;31.20;25.50
52799;DHT22;38667;42.872;74.622;2023-06-19T13:02:23;31.10;25.70
52799;DHT22;38667;42.872;74.622;2023-06-19T13:04:50;31.20;25.50
52799;DHT22;38667;42.872;74.622;2023-06-19T13:07:16;31.40;25.30
52799;DHT22;38667;42.872;74.622;2023-06-19T13:09:42;31.60;25.30
52799;DHT22;38667;42.872;74.622;2023-06-19T13:12:11;31.60;26.10
52799;DHT22;38667;42.872;74.622;2023-06-19T13:14:37;31.10;27.40
52799;DHT22;38667;42.872;74.622;2023-06-19T13:17:04;30.40;28.90
52799;DHT22;38667;42.872;74.622;2023-06-19T13:19:30;29.90;29.90
52799;DHT22;38667;42.872;74.622;2023-06-19T13:21:56;29.30;31.00
52799;DHT22;38667;42.872;74.622;2023-06-19T13:24:22;28.80;31.80
52799;DHT22;38667;42.872;74.622;2023-06-19T13:26:49;28.50;32.70
52799;DHT22;38667;42.872;74.622;2023-06-19T13:29:17;28.30;33.50
52799;DHT22;38667;42.872;74.622;2023-06-19T13:31:43;28.10;33.70
52799;DHT22;38667;42.872;74.622;2023-06-19T13:34:09;28.10;33.90
52799;DHT22;38667;42.872;74.622;2023-06-19T13:36:36;28.10;33.60
52799;DHT22;38667;42.872;74.622;2023-06-19T13:39:03;28.10;33.10
52799;DHT22;38667;42.872;74.622;2023-06-19T13:41:29;28.10;33.20
52799;DHT22;38667;42.872;74.622;2023-06-19T13:43:55;28.10;32.70
52799;DHT22;38667;42.872;74.622;2023-06-19T13:46:23;28.20;32.20
52799;DHT22;38667;42.872;74.622;2023-06-19T13:48:50;28.20;32.10
52799;DHT22;38667;42.872;74.622;2023-06-19T13:51:16;28.30;31.80
52799;DHT22;38667;42.872;74.622;2023-06-19T13:53:43;28.30;32.50
52799;DHT22;38667;42.872;74.622;2023-06-19T13:56:09;28.30;31.50
52799;DHT22;38667;42.872;74.622;2023-06-19T13:58:35;28.30;31.10
52799;DHT22;38667;42.872;74.622;2023-06-19T14:01:02;28.40;31.00
52799;DHT22;38667;42.872;74.622;2023-06-19T14:03:30;28.40;31.00
52799;DHT22;38667;42.872;74.622;2023-06-19T14:05:56;28.40;31.10
52799;DHT22;38667;42.872;74.622;2023-06-19T14:08:22;28.40;31.00
52799;DHT22;38667;42.872;74.622;2023-06-19T14:10:49;28.40;30.80
52799;DHT22;38667;42.872;74.622;2023-06-19T14:13:15;28.50;30.40
52799;DHT22;38667;42.872;74.622;2023-06-19T14:15:41;28.60;30.40
52799;DHT22;38667;42.872;74.622;2023-06-19T14:18:08;28.60;31.00
52799;DHT22;38667;42.872;74.622;2023-06-19T14:20:35;28.50;31.30
52799;DHT22;38667;42.872;74.622;2023-06-19T14:23:02;28.40;32.40
52799;DHT22;38667;42.872;74.622;2023-06-19T14:25:28;28.40;31.50
52799;DHT22;38667;42.872;74.622;2023-06-19T14:27:54;28.60;31.40
52799;DHT22;38667;42.872;74.622;2023-06-19T14:30:21;28.60;32.00
52799;DHT22;38667;42.872;74.622;2023-06-19T14:32:48;28.30;32.50
52799;DHT22;38667;42.872;74.622;2023-06-19T14:35:14;28.20;32.70
52799;DHT22;38667;42.872;74.622;2023-06-19T14:37:42;28.30;32.80
52799;DHT22;38667;42.872;74.622;2023-06-19T14:40:09;28.60;32.50
52799;DHT22;38667;42.872;74.622;2023-06-19T14:42:35;28.70;32.70
52799;DHT22;38667;42.872;74.622;2023-06-19T14:45:02;28.60;32.40
52799;DHT22;38667;42.872;74.622;2023-06-19T14:47:28;28.40;32.90
52799;DHT22;38667;42.872;74.622;2023-06-19T14:49:55;28.40;33.40
52799;DHT22;38667;42.872;74.622;2023-06-19T14:52:21;28.40;33.60
52799;DHT22;38667;42.872;74.622;2023-06-19T14:54:49;28.40;34.00
52799;DHT22;38667;42.872;74.622;2023-06-19T14:57:15;28.20;33.00
52799;DHT22;38667;42.872;74.622;2023-06-19T14:59:42;28.10;32.70
52799;DHT22;38667;42.872;74.622;2023-06-19T15:02:08;28.00;33.20
52799;DHT22;38667;42.872;74.622;2023-06-19T15:04:34;28.00;33.60
52799;DHT22;38667;42.872;74.622;2023-06-19T15:07:01;28.20;33.50
52799;DHT22;38667;42.872;74.622;2023-06-19T15:09:27;28.10;33.40
52799;DHT22;38667;42.872;74.622;2023-06-19T15:11:55;27.90;33.80
52799;DHT22;38667;42.872;74.622;2023-06-19T15:14:21;27.70;33.90